Warning: Javascript must be enabled to use all the features on this page!


Page Loading - Please Wait...

Click to hideNews Bulletins
Click to hide state-specific text
THREATENED-GAGE-NOTICE FOR MINNESOTA
05137500 - Rainy River at Wheeler's Point, MN will be discontinued Oct. 1, 2018

For more information please click on the "Questions about sites/data" link near the bottom of this page or call 763-783-3100.

See map of locations of threatened gage(s) nationally.


* IMPORTANT: Next Generation Station Page

USGS 05289800 MINNEHAHA CREEK AT HIAWATHA AVE. IN MINNEAPOLIS,MN

PROVISIONAL DATA SUBJECT TO REVISION

Click to hidestation-specific text
Minnehaha Creek Watershed District logo

Operated in cooperation with the Minnehaha Creek Watershed District

The precipitation data for this station are temporary and will only be displayed for 120 days. Time-series data or cumulative daily values will NOT be available for retrieval following the 120-day display period. Although the rainfall instrumentation will be calibrated at least annually, the temporary classification means that documented routine inspections and other quality assurance measures may not be performed that would make the data acceptable for archival, retrieval, or future use in general scientific or interpretive studies.

For canoeing the creek, the Minnehaha Creek Watershed District suggests a streamflow rate (also referred to as discharge or flow rate) between 75-150 cubic feet per second, depending on experience. More information is available from their web page here or at the link above.

Click on animated image to see the latest full size current video from site. Click on the Static Image to view the Frame Gallery.

       

Time-lapse video products are considered a proof of concept with no guarantee regarding product up time. Time-lapse videos can be viewed using Chrome, Firefox or Opera browser application on smartphone, tablet, desktop and laptop devices. Additional browser support for Safari and Internet Explorer may be added later.

Any use of trade, firm, or product names is for descriptive purposes only and does not imply endorsement by the U.S. Government.

This station managed by the Mounds View Field Office.

Available Parameters Available Period
All 5 Available Parameters for this site
  
00010 Temperature, water 2010-10-01  2019-04-26
00045 Precipitation 2018-12-29  2019-04-26
00060 Discharge 2006-10-01  2019-04-26
00065 Gage height 2018-12-29  2019-04-26
00095 Specific cond at 25C 2010-10-01  2019-04-26

Graph
Graph w/ stats
Graph w/o stats
Graph w/ (up to 3) parms
Table
Tab-separated
Days  (7)
 

  -- or --
Begin date
 

End date
 

Summary of all available data for this site
Instantaneous-data availability statement






Date / Time




Gage
height,
feet,




Dis-
charge,
ft3/s,



Precip-
itation
total,
inches,



Temper-
ature,
water,
deg C,
Specif-
ic
conduc-
tance,
wat unf
uS/cm @
25 degC,
04/19/2019 00:00 CDT15.19P  304P  0.00P  7.6P  453P  
04/19/2019 00:15 CDT15.18P  302P  0.00P  7.5P  459P  
04/19/2019 00:30 CDT15.19P  304P  0.00P  7.5P  454P  
04/19/2019 00:45 CDT15.17P  300P  0.00P  7.5P  465P  
04/19/2019 01:00 CDT15.18P  302P  0.00P  7.5P  453P  
04/19/2019 01:15 CDT15.17P  300P  0.00P  7.5P  454P  
04/19/2019 01:30 CDT15.18P  302P  0.00P  7.5P  453P  
04/19/2019 01:45 CDT15.17P  300P  0.00P  7.5P  461P  
04/19/2019 02:00 CDT15.17P  300P  0.00P  7.5P  467P  
04/19/2019 02:15 CDT15.17P  300P  0.00P  7.5P  466P  
04/19/2019 02:30 CDT15.18P  302P  0.00P  7.5P  456P  
04/19/2019 02:45 CDT15.16P  298P  0.00P  7.4P  454P  
04/19/2019 03:00 CDT15.16P  298P  0.00P  7.4P  458P  
04/19/2019 03:15 CDT15.17P  300P  0.00P  7.4P  459P  
04/19/2019 03:30 CDT15.15P  297P  0.00P  7.4P  457P  
04/19/2019 03:45 CDT15.16P  298P  0.00P  7.4P  457P  
04/19/2019 04:00 CDT15.16P  298P  0.00P  7.4P  457P  
04/19/2019 04:15 CDT15.16P  298P  0.00P  7.4P  458P  
04/19/2019 04:30 CDT15.17P  300P  0.00P  7.4P  457P  
04/19/2019 04:45 CDT15.15P  297P  0.00P  7.4P  466P  
04/19/2019 05:00 CDT15.15P  297P  0.00P  7.3P  458P  
04/19/2019 05:15 CDT15.16P  298P  0.00P  7.3P  465P  
04/19/2019 05:30 CDT15.16P  298P  0.00P  7.3P  460P  
04/19/2019 05:45 CDT15.15P  297P  0.00P  7.3P  456P  
04/19/2019 06:00 CDT15.15P  297P  0.00P  7.3P  453P  
04/19/2019 06:15 CDT15.15P  297P  0.00P  7.3P  460P  
04/19/2019 06:30 CDT15.15P  297P  0.00P  7.2P  458P  
04/19/2019 06:45 CDT15.15P  297P  0.00P  7.2P  456P  
04/19/2019 07:00 CDT15.14P  295P  0.00P  7.2P  457P  
04/19/2019 07:15 CDT15.14P  295P  0.00P  7.2P  457P  
04/19/2019 07:30 CDT15.16P  298P  0.00P  7.2P  459P  
04/19/2019 07:45 CDT15.13P  293P  0.00P  7.2P  459P  
04/19/2019 08:00 CDT15.14P  295P  0.00P  7.2P  459P  
04/19/2019 08:15 CDT15.13P  293P  0.00P  7.2P  458P  
04/19/2019 08:30 CDT15.13P  293P  0.00P  7.3P  467P  
04/19/2019 08:45 CDT15.13P  293P  0.00P  7.3P  458P  
04/19/2019 09:00 CDT15.14P  295P  0.00P  7.4P  459P  
04/19/2019 09:15 CDT15.13P  293P  0.00P  7.4P  461P  
04/19/2019 09:30 CDT15.14P  295P  0.00P  7.5P  457P  
04/19/2019 09:45 CDT15.13P  293P  0.00P  7.6P  459P  
04/19/2019 10:00 CDT15.13P  293P  0.00P  7.6P  457P  
04/19/2019 10:15 CDT15.13P  293P  0.00P  7.7P  457P  
04/19/2019 10:30 CDT15.11P  289P  0.00P  7.8P  468P  
04/19/2019 10:45 CDT15.11P  289P  0.00P  7.9P  459P  
04/19/2019 11:00 CDT15.13P  293P  0.00P  7.9P  464P  
04/19/2019 11:15 CDT15.12P  291P  0.00P  8.0P  466P  
04/19/2019 11:30 CDT15.12P  291P  0.00P  8.1P  468P  
04/19/2019 11:45 CDT15.12P  291P  0.00P  8.2P  467P  
04/19/2019 12:00 CDT15.13P  293P  0.00P  8.2P  456P  
04/19/2019 12:15 CDT15.12P  291P  0.00P  8.3P  465P  
04/19/2019 12:30 CDT15.13P  293P  0.00P  8.4P  458P  
04/19/2019 12:45 CDT15.11P  289P  0.00P  8.5P  455P  
04/19/2019 13:00 CDT15.12P  291P  0.00P  8.6P  455P  
04/19/2019 13:15 CDT15.12P  291P  0.00P  8.6P  452P  
04/19/2019 13:30 CDT15.11P  289P  0.00P  8.7P  455P  
04/19/2019 13:45 CDT15.12P  291P  0.00P  8.8P  456P  
04/19/2019 14:00 CDT15.11P  289P  0.00P  8.9P  455P  
04/19/2019 14:15 CDT15.12P  291P  0.00P  9.0P  458P  
04/19/2019 14:30 CDT15.12P  291P  0.00P  9.0P  457P  
04/19/2019 14:45 CDT15.12P  291P  0.00P  9.1P  454P  
04/19/2019 15:00 CDT15.11P  289P  0.00P  9.2P  455P  
04/19/2019 15:15 CDT15.11P  289P  0.00P  9.2P  452P  
04/19/2019 15:30 CDT15.12P  291P  0.00P  9.3P  453P  
04/19/2019 15:45 CDT15.10P  288P  0.00P  9.3P  466P  
04/19/2019 16:00 CDT15.12P  291P  0.00P  9.4P  453P  
04/19/2019 16:15 CDT15.10P  288P  0.00P  9.4P  455P  
04/19/2019 16:30 CDT15.11P  289P  0.00P  9.3P  452P  
04/19/2019 16:45 CDT15.10P  288P  0.00P  9.3P  453P  
04/19/2019 17:00 CDT15.12P  291P  0.00P  9.3P  452P  
04/19/2019 17:15 CDT15.11P  289P  0.00P  9.3P  451P  
04/19/2019 17:30 CDT15.11P  289P  0.00P  9.3P  448P  
04/19/2019 17:45 CDT15.12P  291P  0.00P  9.2P  449P  
04/19/2019 18:00 CDT15.11P  289P  0.00P  9.2P  451P  
04/19/2019 18:15 CDT15.12P  291P  0.00P  9.2P  452P  
04/19/2019 18:30 CDT15.10P  288P  0.00P  9.1P  452P  
04/19/2019 18:45 CDT15.11P  289P  0.00P  9.1P  455P  
04/19/2019 19:00 CDT15.11P  289P  0.00P  9.0P  454P  
04/19/2019 19:15 CDT15.10P  288P  0.00P  9.0P  456P  
04/19/2019 19:30 CDT15.10P  288P  0.00P  8.9P  446P  
04/19/2019 19:45 CDT15.11P  289P  0.00P  8.9P  450P  
04/19/2019 20:00 CDT15.12P  291P  0.00P  8.8P  450P  
04/19/2019 20:15 CDT15.11P  289P  0.00P  8.8P  450P  
04/19/2019 20:30 CDT15.11P  289P  0.00P  8.8P  450P  
04/19/2019 20:45 CDT15.11P  289P  0.00P  8.8P  451P  
04/19/2019 21:00 CDT15.11P  289P  0.00P  8.7P  457P  
04/19/2019 21:15 CDT15.11P  289P  0.00P  8.7P  449P  
04/19/2019 21:30 CDT15.10P  288P  0.00P  8.7P  461P  
04/19/2019 21:45 CDT15.10P  288P  0.00P  8.7P  464P  
04/19/2019 22:00 CDT15.11P  289P  0.00P  8.7P  448P  
04/19/2019 22:15 CDT15.11P  289P  0.00P  8.7P  454P  
04/19/2019 22:30 CDT15.10P  288P  0.00P  8.7P  448P  
04/19/2019 22:45 CDT15.11P  289P  0.00P  8.7P  449P  
04/19/2019 23:00 CDT15.11P  289P  0.00P  8.7P  448P  
04/19/2019 23:15 CDT15.11P  289P  0.00P  8.7P  450P  
04/19/2019 23:30 CDT15.10P  288P  0.00P  8.7P  449P  
04/19/2019 23:45 CDT15.10P  288P  0.00P  8.7P  448P  
04/20/2019 00:00 CDT15.10P  288P  0.00P  8.7P  448P  
04/20/2019 00:15 CDT15.10P  288P  0.00P  8.7P  448P  
04/20/2019 00:30 CDT15.11P  289P  0.00P  8.7P  448P  
04/20/2019 00:45 CDT15.09P  286P  0.00P  8.7P  449P  
04/20/2019 01:00 CDT15.10P  288P  0.00P  8.7P  447P  
04/20/2019 01:15 CDT15.11P  289P  0.00P  8.7P  447P  
04/20/2019 01:30 CDT15.10P  288P  0.00P  8.7P  448P  
04/20/2019 01:45 CDT15.10P  288P  0.00P  8.7P  450P  
04/20/2019 02:00 CDT15.09P  286P  0.00P  8.7P  450P  
04/20/2019 02:15 CDT15.10P  288P  0.00P  8.7P  447P  
04/20/2019 02:30 CDT15.10P  288P  0.00P  8.7P  450P  
04/20/2019 02:45 CDT15.11P  289P  0.00P  8.7P  441P  
04/20/2019 03:00 CDT15.11P  289P  0.00P  8.7P  450P  
04/20/2019 03:15 CDT15.11P  289P  0.00P  8.7P  450P  
04/20/2019 03:30 CDT15.11P  289P  0.00P  8.7P  445P  
04/20/2019 03:45 CDT15.11P  289P  0.00P  8.7P  446P  
04/20/2019 04:00 CDT15.10P  288P  0.00P  8.6P  445P  
04/20/2019 04:15 CDT15.11P  289P  0.00P  8.6P  447P  
04/20/2019 04:30 CDT15.10P  288P  0.00P  8.6P  453P  
04/20/2019 04:45 CDT15.09P  286P  0.00P  8.6P  447P  
04/20/2019 05:00 CDT15.10P  288P  0.00P  8.6P  448P  
04/20/2019 05:15 CDT15.10P  288P  0.00P  8.6P  448P  
04/20/2019 05:30 CDT15.10P  288P  0.00P  8.6P  449P  
04/20/2019 05:45 CDT15.09P  286P  0.00P  8.6P  447P  
04/20/2019 06:00 CDT15.11P  289P  0.00P  8.5P  451P  
04/20/2019 06:15 CDT15.10P  288P  0.00P  8.5P  448P  
04/20/2019 06:30 CDT15.10P  288P  0.00P  8.5P  444P  
04/20/2019 06:45 CDT15.10P  288P  0.00P  8.5P  444P  
04/20/2019 07:00 CDT15.11P  289P  0.00P  8.5P  446P  
04/20/2019 07:15 CDT15.11P  289P  0.00P  8.5P  444P  
04/20/2019 07:30 CDT15.10P  288P  0.00P  8.5P  446P  
04/20/2019 07:45 CDT15.10P  288P  0.00P  8.5P  443P  
04/20/2019 08:00 CDT15.10P  288P  0.00P  8.5P  444P  
04/20/2019 08:15 CDT15.11P  289P  0.00P  8.6P  444P  
04/20/2019 08:30 CDT15.09P  286P  0.00P  8.6P  445P  
04/20/2019 08:45 CDT15.10P  288P  0.00P  8.6P  444P  
04/20/2019 09:00 CDT15.10P  288P  0.00P  8.7P  446P  
04/20/2019 09:15 CDT15.11P  289P  0.00P  8.7P  442P  
04/20/2019 09:30 CDT15.10P  288P  0.00P  8.8P  442P  
04/20/2019 09:45 CDT15.11P  289P  0.00P  8.9P  446P  
04/20/2019 10:00 CDT15.10P  288P  0.00P  9.0P  443P  
04/20/2019 10:15 CDT15.11P  289P  0.00P  9.0P  448P  
04/20/2019 10:30 CDT15.12P  291P  0.00P  9.1P  445P  
04/20/2019 10:45 CDT15.11P  289P  0.00P  9.2P  440P  
04/20/2019 11:00 CDT15.11P  289P  0.00P  9.2P  443P  
04/20/2019 11:15 CDT15.10P  288P  0.00P  9.3P  441P  
04/20/2019 11:30 CDT15.11P  289P  0.00P  9.4P  442P  
04/20/2019 11:45 CDT15.11P  289P  0.00P  9.4P  442P  
04/20/2019 12:00 CDT15.10P  288P  0.00P  9.5P  440P  
04/20/2019 12:15 CDT15.11P  289P  0.00P  9.6P  440P  
04/20/2019 12:30 CDT15.11P  289P  0.00P  9.7P  442P  
04/20/2019 12:45 CDT15.11P  289P  0.00P  9.7P  445P  
04/20/2019 13:00 CDT15.12P  291P  0.00P  9.8P  440P  
04/20/2019 13:15 CDT15.11P  289P  0.00P  9.9P  442P  
04/20/2019 13:30 CDT15.11P  289P  0.00P  9.9P  440P  
04/20/2019 13:45 CDT15.11P  289P  0.00P  10.0P  445P  
04/20/2019 14:00 CDT15.11P  289P  0.00P  10.0P  439P  
04/20/2019 14:15 CDT15.11P  289P  0.00P  10.1P  440P  
04/20/2019 14:30 CDT15.12P  291P  0.00P  10.1P  440P  
04/20/2019 14:45 CDT15.12P  291P  0.00P  10.2P  443P  
04/20/2019 15:00 CDT15.12P  291P  0.00P  10.2P  442P  
04/20/2019 15:15 CDT15.12P  291P  0.00P  10.2P  449P  
04/20/2019 15:30 CDT15.12P  291P  0.00P  10.3P  440P  
04/20/2019 15:45 CDT15.11P  289P  0.00P  10.3P  441P  
04/20/2019 16:00 CDT15.11P  289P  0.00P  10.3P  440P  
04/20/2019 16:15 CDT15.12P  291P  0.00P  10.4P  441P  
04/20/2019 16:30 CDT15.10P  288P  0.00P  10.4P  439P  
04/20/2019 16:45 CDT15.12P  291P  0.00P  10.4P  439P  
04/20/2019 17:00 CDT15.12P  291P  0.00P  10.3P  440P  
04/20/2019 17:15 CDT15.12P  291P  0.00P  10.4P  441P  
04/20/2019 17:30 CDT15.13P  293P  0.00P  10.3P  442P  
04/20/2019 17:45 CDT15.12P  291P  0.00P  10.3P  442P  
04/20/2019 18:00 CDT15.12P  291P  0.00P  10.3P  440P  
04/20/2019 18:15 CDT15.12P  291P  0.00P  10.3P  443P  
04/20/2019 18:30 CDT15.12P  291P  0.00P  10.2P  442P  
04/20/2019 18:45 CDT15.12P  291P  0.00P  10.2P  441P  
04/20/2019 19:00 CDT15.12P  291P  0.00P  10.2P  443P  
04/20/2019 19:15 CDT15.12P  291P  0.00P  10.2P  452P  
04/20/2019 19:30 CDT15.11P  289P  0.00P  10.2P  442P  
04/20/2019 19:45 CDT15.12P  291P  0.00P  10.2P  442P  
04/20/2019 20:00 CDT15.12P  291P  0.00P  10.2P  442P  
04/20/2019 20:15 CDT15.12P  291P  0.00P  10.2P  439P  
04/20/2019 20:30 CDT15.12P  291P  0.00P  10.2P  440P  
04/20/2019 20:45 CDT15.13P  293P  0.00P  10.2P  439P  
04/20/2019 21:00 CDT15.12P  291P  0.00P  10.2P  438P  
04/20/2019 21:15 CDT15.13P  293P  0.00P  10.2P  438P  
04/20/2019 21:30 CDT15.11P  289P  0.00P  10.2P  438P  
04/20/2019 21:45 CDT15.11P  289P  0.00P  10.2P  442P  
04/20/2019 22:00 CDT15.11P  289P  0.00P  10.2P  438P  
04/20/2019 22:15 CDT15.12P  291P  0.00P  10.2P  442P  
04/20/2019 22:30 CDT15.11P  289P  0.00P  10.3P  451P  
04/20/2019 22:45 CDT15.11P  289P  0.00P  10.3P  439P  
04/20/2019 23:00 CDT15.12P  291P  0.00P  10.3P  439P  
04/20/2019 23:15 CDT15.12P  291P  0.00P  10.3P  440P  
04/20/2019 23:30 CDT15.13P  293P  0.00P  10.3P  439P  
04/20/2019 23:45 CDT15.12P  291P  0.00P  10.3P  440P  
04/21/2019 00:00 CDT15.11P  289P  0.00P  10.3P  437P  
04/21/2019 00:15 CDT15.11P  289P  0.00P  10.4P  439P  
04/21/2019 00:30 CDT15.12P  291P  0.00P  10.4P  438P  
04/21/2019 00:45 CDT15.11P  289P  0.00P  10.4P  438P  
04/21/2019 01:00 CDT15.12P  291P  0.00P  10.4P  443P  
04/21/2019 01:15 CDT15.11P  289P  0.00P  10.4P  439P  
04/21/2019 01:30 CDT15.13P  293P  0.00P  10.4P  438P  
04/21/2019 01:45 CDT15.12P  291P  0.00P  10.4P  441P  
04/21/2019 02:00 CDT15.11P  289P  0.00P  10.4P  439P  
04/21/2019 02:15 CDT15.12P  291P  0.00P  10.4P  437P  
04/21/2019 02:30 CDT15.12P  291P  0.00P  10.4P  436P  
04/21/2019 02:45 CDT15.13P  293P  0.00P  10.4P  438P  
04/21/2019 03:00 CDT15.12P  291P  0.00P  10.4P  437P  
04/21/2019 03:15 CDT15.11P  289P  0.00P  10.4P  440P  
04/21/2019 03:30 CDT15.13P  293P  0.00P  10.4P  436P  
04/21/2019 03:45 CDT15.11P  289P  0.00P  10.4P  437P  
04/21/2019 04:00 CDT15.12P  291P  0.00P  10.4P  436P  
04/21/2019 04:15 CDT15.13P  293P  0.00P  10.4P  437P  
04/21/2019 04:30 CDT15.12P  291P  0.00P  10.4P  436P  
04/21/2019 04:45 CDT15.13P  293P  0.00P  10.4P  436P  
04/21/2019 05:00 CDT15.12P  291P  0.00P  10.4P  437P  
04/21/2019 05:15 CDT15.12P  291P  0.00P  10.4P  434P  
04/21/2019 05:30 CDT15.12P  291P  0.00P  10.3P  437P  
04/21/2019 05:45 CDT15.12P  291P  0.00P  10.4P  435P  
04/21/2019 06:00 CDT15.12P  291P  0.00P  10.4P  436P  
04/21/2019 06:15 CDT15.12P  291P  0.00P  10.4P  436P  
04/21/2019 06:30 CDT15.12P  291P  0.00P  10.4P  433P  
04/21/2019 06:45 CDT15.12P  291P  0.00P  10.4P  434P  
04/21/2019 07:00 CDT15.13P  293P  0.00P  10.4P  439P  
04/21/2019 07:15 CDT15.13P  293P  0.00P  10.4P  435P  
04/21/2019 07:30 CDT15.13P  293P  0.00P  10.4P  439P  
04/21/2019 07:45 CDT15.13P  293P  0.00P  10.4P  438P  
04/21/2019 08:00 CDT15.12P  291P  0.00P  10.4P  437P  
04/21/2019 08:15 CDT15.13P  293P  0.00P  10.4P  436P  
04/21/2019 08:30 CDT15.14P  295P  0.00P  10.4P  434P  
04/21/2019 08:45 CDT15.14P  295P  0.00P  10.4P  433P  
04/21/2019 09:00 CDT15.11P  289P  0.00P  10.5P  435P  
04/21/2019 09:15 CDT15.13P  293P  0.00P  10.5P  435P  
04/21/2019 09:30 CDT15.12P  291P  0.00P  10.6P  433P  
04/21/2019 09:45 CDT15.13P  293P  0.00P  10.6P  436P  
04/21/2019 10:00 CDT15.12P  291P  0.00P  10.7P  433P  
04/21/2019 10:15 CDT15.13P  293P  0.00P  10.8P  434P  
04/21/2019 10:30 CDT15.13P  293P  0.00P  10.9P  436P  
04/21/2019 10:45 CDT15.13P  293P  0.00P  11.0P  433P  
04/21/2019 11:00 CDT15.12P  291P  0.00P  11.0P  434P  
04/21/2019 11:15 CDT15.12P  291P  0.00P  11.0P  435P  
04/21/2019 11:30 CDT15.12P  291P  0.00P  11.0P  434P  
04/21/2019 11:45 CDT15.14P  295P  0.00P  11.0P  434P  
04/21/2019 12:00 CDT15.13P  293P  0.00P  11.1P  433P  
04/21/2019 12:15 CDT15.14P  295P  0.00P  11.3P  434P  
04/21/2019 12:30 CDT15.13P  293P  0.00P  11.4P  432P  
04/21/2019 12:45 CDT15.13P  293P  0.00P  11.5P  436P  
04/21/2019 13:00 CDT15.14P  295P  0.00P  11.5P  434P  
04/21/2019 13:15 CDT15.13P  293P  0.00P  11.6P  434P  
04/21/2019 13:30 CDT15.14P  295P  0.00P  11.6P  435P  
04/21/2019 13:45 CDT15.14P  295P  0.00P  11.7P  434P  
04/21/2019 14:00 CDT15.12P  291P  0.00P  11.8P  432P  
04/21/2019 14:15 CDT15.13P  293P  0.00P  11.8P  435P  
04/21/2019 14:30 CDT15.13P  293P  0.00P  11.8P  436P  
04/21/2019 14:45 CDT15.14P  295P  0.00P  11.8P  439P  
04/21/2019 15:00 CDT15.13P  293P  0.00P  11.8P  437P  
04/21/2019 15:15 CDT15.13P  293P  0.00P  11.8P  433P  
04/21/2019 15:30 CDT15.12P  291P  0.00P  11.8P  433P  
04/21/2019 15:45 CDT15.13P  293P  0.00P  11.8P  432P  
04/21/2019 16:00 CDT15.12P  291P  0.00P  11.9P  432P  
04/21/2019 16:15 CDT15.14P  295P  0.00P  11.9P  432P  
04/21/2019 16:30 CDT15.14P  295P  0.00P  12.0P  433P  
04/21/2019 16:45 CDT15.12P  291P  0.00P  12.0P  432P  
04/21/2019 17:00 CDT15.13P  293P  0.00P  12.0P  434P  
04/21/2019 17:15 CDT15.13P  293P  0.00P  12.0P  433P  
04/21/2019 17:30 CDT15.13P  293P  0.00P  12.0P  432P  
04/21/2019 17:45 CDT15.14P  295P  0.00P  12.1P  431P  
04/21/2019 18:00 CDT15.12P  291P  0.00P  12.2P  432P  
04/21/2019 18:15 CDT15.13P  293P  0.00P  12.2P  431P  
04/21/2019 18:30 CDT15.14P  295P  0.00P  12.2P  432P  
04/21/2019 18:45 CDT15.13P  293P  0.00P  12.2P  431P  
04/21/2019 19:00 CDT15.14P  295P  0.00P  12.2P  435P  
04/21/2019 19:15 CDT15.13P  293P  0.00P  12.2P  431P  
04/21/2019 19:30 CDT15.14P  295P  0.00P  12.2P  431P  
04/21/2019 19:45 CDT15.12P  291P  0.00P  12.1P  431P  
04/21/2019 20:00 CDT15.12P  291P  0.00P  12.0P  432P  
04/21/2019 20:15 CDT15.13P  293P  0.00P  12.0P  432P  
04/21/2019 20:30 CDT15.13P  293P  0.00P  12.0P  432P  
04/21/2019 20:45 CDT15.13P  293P  0.00P  12.0P  432P  
04/21/2019 21:00 CDT15.13P  293P  0.00P  12.0P  428P  
04/21/2019 21:15 CDT15.14P  295P  0.00P  12.0P  433P  
04/21/2019 21:30 CDT15.14P  295P  0.00P  11.9P  433P  
04/21/2019 21:45 CDT15.12P  291P  0.00P  11.9P  430P  
04/21/2019 22:00 CDT15.13P  293P  0.00P  11.9P  429P  
04/21/2019 22:15 CDT15.13P  293P  0.00P  11.9P  429P  
04/21/2019 22:30 CDT15.13P  293P  0.00P  11.9P  432P  
04/21/2019 22:45 CDT15.13P  293P  0.00P  11.9P  430P  
04/21/2019 23:00 CDT15.12P  291P  0.00P  11.9P  429P  
04/21/2019 23:15 CDT15.13P  293P  0.00P  11.8P  431P  
04/21/2019 23:30 CDT15.13P  293P  0.00P  11.8P  429P  
04/21/2019 23:45 CDT15.13P  293P  0.00P  11.8P  430P  
04/22/2019 00:00 CDT15.12P  291P  0.00P  11.8P  450P  
04/22/2019 00:15 CDT15.13P  293P  0.00P  11.8P  430P  
04/22/2019 00:30 CDT15.13P  293P  0.00P  11.8P  432P  
04/22/2019 00:45 CDT15.12P  291P  0.00P  11.8P  433P  
04/22/2019 01:00 CDT15.14P  295P  0.00P  11.7P  434P  
04/22/2019 01:15 CDT15.13P  293P  0.00P  11.7P  433P  
04/22/2019 01:30 CDT15.12P  291P  0.00P  11.7P  435P  
04/22/2019 01:45 CDT15.13P  293P  0.00P  11.7P  435P  
04/22/2019 02:00 CDT15.13P  293P  0.00P  11.6P  434P  
04/22/2019 02:15 CDT15.13P  293P  0.00P  11.6P  439P  
04/22/2019 02:30 CDT15.12P  291P  0.00P  11.6P  429P  
04/22/2019 02:45 CDT15.13P  293P  0.00P  11.6P  431P  
04/22/2019 03:00 CDT15.13P  293P  0.00P  11.6P  439P  
04/22/2019 03:15 CDT15.13P  293P  0.00P  11.6P  436P  
04/22/2019 03:30 CDT15.13P  293P  0.00P  11.6P  433P  
04/22/2019 03:45 CDT15.13P  293P  0.00P  11.6P  436P  
04/22/2019 04:00 CDT15.13P  293P  0.00P  11.5P  433P  
04/22/2019 04:15 CDT15.13P  293P  0.00P  11.5P  443P  
04/22/2019 04:30 CDT15.12P  291P  0.00P  11.5P  444P  
04/22/2019 04:45 CDT15.13P  293P  0.00P  11.5P  434P  
04/22/2019 05:00 CDT15.12P  291P  0.00P  11.5P  433P  
04/22/2019 05:15 CDT15.12P  291P  0.00P  11.5P  431P  
04/22/2019 05:30 CDT15.13P  293P  0.00P  11.5P  438P  
04/22/2019 05:45 CDT15.12P  291P  0.00P  11.4P  433P  
04/22/2019 06:00 CDT15.13P  293P  0.00P  11.4P  436P  
04/22/2019 06:15 CDT15.14P  295P  0.00P  11.4P  449P  
04/22/2019 06:30 CDT15.13P  293P  0.00P  11.4P  432P  
04/22/2019 06:40 CDT15.13P  293P  0.04P  11.4P  433P  
04/22/2019 06:45 CDT15.14P  295P  0.03P  11.4P  435P  
04/22/2019 06:50 CDT15.14P  295P  0.04P  11.4P  431P  
04/22/2019 06:55 CDT15.13P  293P  0.02P  11.4P  432P  
04/22/2019 07:00 CDT15.13P  293P  0.01P  11.4P  433P  
04/22/2019 07:15 CDT15.14P  295P  0.00P  11.4P  444P  
04/22/2019 07:30 CDT15.16P  298P  0.00P  11.3P  428P  
04/22/2019 07:45 CDT15.15P  297P  0.00P  11.3P  433P  
04/22/2019 08:00 CDT15.15P  297P  0.00P  11.3P  435P  
04/22/2019 08:10 CDT15.16P  298P  0.01P  11.3P  429P  
04/22/2019 08:15 CDT15.17P  300P  0.01P  11.3P  435P  
04/22/2019 08:20 CDT15.16P  298P  0.01P  11.3P  435P  
04/22/2019 08:25 CDT15.16P  298P  0.01P  11.3P  431P  
04/22/2019 08:30 CDT15.15P  297P  0.01P  11.3P  428P  
04/22/2019 08:45 CDT15.17P  300P  0.00P  11.3P  429P  
04/22/2019 09:00 CDT15.18P  302P  0.00P  11.3P  429P  
04/22/2019 09:15 CDT15.17P  300P  0.00P  11.3P  434P  
04/22/2019 09:25 CDT15.18P  302P  0.01P  11.2P  430P  
04/22/2019 09:30 CDT15.18P  302P  0.00P  11.2P  431P  
04/22/2019 09:35 CDT15.19P  304P  0.01P  11.2P  434P  
04/22/2019 09:40 CDT15.19P  304P  0.03P  11.2P  431P  
04/22/2019 09:45 CDT15.17P  300P  0.02P  11.2P  428P  
04/22/2019 10:00 CDT15.19P  304P  0.01P  11.2P  429P  
04/22/2019 10:05 CDT15.18P  302P  0.02P  11.2P  428P  
04/22/2019 10:10 CDT15.18P  302P  0.01P  11.2P  430P  
04/22/2019 10:15 CDT15.21P  308P  0.00P  11.2P  429P  
04/22/2019 10:30 CDT15.22P  310P  0.00P  11.2P  428P  
04/22/2019 10:45 CDT15.21P  308P  0.00P  11.2P  426P  
04/22/2019 11:00 CDT15.21P  308P  0.00P  11.2P  425P  
04/22/2019 11:10 CDT15.21P  308P  0.01P  11.2P  426P  
04/22/2019 11:15 CDT15.21P  308P  0.00P  11.2P  426P  
04/22/2019 11:30 CDT15.21P  308P  0.01P  11.2P  427P  
04/22/2019 11:45 CDT15.22P  310P  0.00P  11.2P  426P  
04/22/2019 12:00 CDT15.22P  310P  0.00P  11.2P  426P  
04/22/2019 12:15 CDT15.22P  310P  0.00P  11.2P  426P  
04/22/2019 12:30 CDT15.23P  311P  0.00P  11.2P  422P  
04/22/2019 12:45 CDT15.22P  310P  0.00P  11.2P  427P  
04/22/2019 13:00 CDT15.23P  311P  0.00P  11.2P  424P  
04/22/2019 13:15 CDT15.23P  311P  0.00P  11.2P  427P  
04/22/2019 13:30 CDT15.23P  311P  0.00P  11.2P  425P  
04/22/2019 13:45 CDT15.22P  310P  0.00P  11.2P  424P  
04/22/2019 14:00 CDT15.22P  310P  0.00P  11.1P  425P  
04/22/2019 14:15 CDT15.23P  311P  0.00P  11.1P  421P  
04/22/2019 14:30 CDT15.24P  313P  0.00P  11.1P  429P  
04/22/2019 14:45 CDT15.22P  310P  0.00P  11.1P  424P  
04/22/2019 15:00 CDT15.22P  310P  0.00P  11.1P  425P  
04/22/2019 15:10 CDT15.22P  310P  0.01P  11.0P  424P  
04/22/2019 15:15 CDT15.22P  310P  0.00P  11.0P  429P  
04/22/2019 15:20 CDT15.22P  310P  0.01P  11.0P  422P  
04/22/2019 15:30 CDT15.24P  313P  0.00P  11.0P  429P  
04/22/2019 15:40 CDT15.22P  310P  0.01P  11.0P  429P  
04/22/2019 15:45 CDT15.23P  311P  0.00P  11.0P  424P  
04/22/2019 15:50 CDT15.22P  310P  0.01P  11.0P  428P  
04/22/2019 16:00 CDT15.23P  311P  0.00P  11.0P  428P  
04/22/2019 16:05 CDT15.22P  310P  0.01P  11.0P  428P  
04/22/2019 16:15 CDT15.23P  311P  0.01P  11.0P  424P  
04/22/2019 16:30 CDT15.24P  313P  0.01P  11.0P  424P  
04/22/2019 16:40 CDT15.25P  315P  0.01P  11.0P  431P  
04/22/2019 16:45 CDT15.24P  313P  0.00P  11.0P  424P  
04/22/2019 17:00 CDT15.25P  315P  0.01P  11.0P  424P  
04/22/2019 17:15 CDT15.24P  313P  0.00P  10.9P  434P  
04/22/2019 17:30 CDT15.23P  311P  0.01P  10.9P  423P  
04/22/2019 17:45 CDT15.25P  315P  0.00P  10.9P  421P  
04/22/2019 18:00 CDT15.24P  313P  0.00P  10.9P  423P  
04/22/2019 18:15 CDT15.25P  315P  0.00P  10.9P  424P  
04/22/2019 18:30 CDT15.23P  311P  0.00P  10.8P  422P  
04/22/2019 18:45 CDT15.23P  311P  0.00P  10.8P  423P  
04/22/2019 19:00 CDT15.23P  311P  0.00P  10.8P  424P  
04/22/2019 19:15 CDT15.24P  313P  0.00P  10.8P  426P  
04/22/2019 19:30 CDT15.25P  315P  0.00P  10.8P  425P  
04/22/2019 19:45 CDT15.24P  313P  0.00P  10.8P  433P  
04/22/2019 20:00 CDT15.25P  315P  0.00P  10.8P  427P  
04/22/2019 20:15 CDT15.23P  311P  0.00P  10.7P  423P  
04/22/2019 20:30 CDT15.25P  315P  0.00P  10.7P  423P  
04/22/2019 20:45 CDT15.23P  311P  0.00P  10.7P  427P  
04/22/2019 21:00 CDT15.30P  325P  0.00P  10.7P  424P  
04/22/2019 21:15 CDT15.23P  311P  0.00P  10.6P  423P  
04/22/2019 21:30 CDT15.23P  311P  0.00P  10.6P  420P  
04/22/2019 21:45 CDT15.22P  310P  0.00P  10.6P  422P  
04/22/2019 22:00 CDT15.22P  310P  0.00P  10.6P  421P  
04/22/2019 22:15 CDT15.21P  308P  0.00P  10.6P  423P  
04/22/2019 22:30 CDT15.22P  310P  0.00P  10.5P  423P  
04/22/2019 22:45 CDT15.21P  308P  0.00P  10.5P  422P  
04/22/2019 23:00 CDT15.22P  310P  0.00P  10.5P  424P  
04/22/2019 23:15 CDT15.22P  310P  0.00P  10.4P  430P  
04/22/2019 23:30 CDT15.21P  308P  0.00P  10.4P  428P  
04/22/2019 23:45 CDT15.22P  310P  0.00P  10.4P  430P  
04/23/2019 00:00 CDT15.21P  308P  0.00P  10.4P  424P  
04/23/2019 00:15 CDT15.19P  304P  0.00P  10.4P  423P  
04/23/2019 00:30 CDT15.21P  308P  0.00P  10.4P  424P  
04/23/2019 00:45 CDT15.20P  306P  0.00P  10.3P  429P  
04/23/2019 01:00 CDT15.21P  308P  0.00P  10.3P  422P  
04/23/2019 01:15 CDT15.19P  304P  0.00P  10.3P  423P  
04/23/2019 01:30 CDT15.20P  306P  0.00P  10.3P  422P  
04/23/2019 01:45 CDT15.19P  304P  0.00P  10.3P  425P  
04/23/2019 02:00 CDT15.20P  306P  0.00P  10.2P  427P  
04/23/2019 02:15 CDT15.21P  308P  0.00P  10.2P  428P  
04/23/2019 02:30 CDT15.20P  306P  0.00P  10.2P  423P  
04/23/2019 02:45 CDT15.19P  304P  0.00P  10.2P  422P  
04/23/2019 03:00 CDT15.19P  304P  0.00P  10.2P  426P  
04/23/2019 03:15 CDT15.20P  306P  0.00P  10.1P  424P  
04/23/2019 03:30 CDT15.19P  304P  0.00P  10.1P  424P  
04/23/2019 03:45 CDT15.20P  306P  0.00P  10.1P  427P  
04/23/2019 04:00 CDT15.19P  304P  0.00P  10.0P  422P  
04/23/2019 04:15 CDT15.19P  304P  0.00P  10.0P  427P  
04/23/2019 04:30 CDT15.19P  304P  0.00P  10.0P  423P  
04/23/2019 04:45 CDT15.19P  304P  0.00P  10.0P  429P  
04/23/2019 05:00 CDT15.18P  302P  0.00P  10.0P  427P  
04/23/2019 05:15 CDT15.18P  302P  0.00P  10.0P  431P  
04/23/2019 05:30 CDT15.19P  304P  0.00P  9.9P  423P  
04/23/2019 05:45 CDT15.18P  302P  0.00P  9.9P  433P  
04/23/2019 06:00 CDT15.19P  304P  0.00P  9.9P  424P  
04/23/2019 06:15 CDT15.19P  304P  0.00P  9.9P  429P  
04/23/2019 06:30 CDT15.19P  304P  0.00P  9.8P  426P  
04/23/2019 06:45 CDT15.17P  300P  0.00P  9.8P  439P  
04/23/2019 07:00 CDT15.18P  302P  0.00P  9.8P  426P  
04/23/2019 07:15 CDT15.18P  302P  0.00P  9.8P  425P  
04/23/2019 07:30 CDT15.19P  304P  0.00P  9.8P  424P  
04/23/2019 07:45 CDT15.18P  302P  0.00P  9.8P  422P  
04/23/2019 08:00 CDT15.16P  298P  0.00P  9.8P  426P  
04/23/2019 08:15 CDT15.18P  302P  0.00P  9.8P  426P  
04/23/2019 08:30 CDT15.17P  300P  0.00P  9.8P  427P  
04/23/2019 08:45 CDT15.17P  300P  0.00P  9.8P  432P  
04/23/2019 09:00 CDT15.18P  302P  0.00P  9.9P  430P  
04/23/2019 09:15 CDT15.17P  300P  0.00P  9.9P  424P  
04/23/2019 09:30 CDT15.17P  300P  0.00P  10.0P  424P  
04/23/2019 09:45 CDT15.18P  302P  0.00P  10.0P  423P  
04/23/2019 10:00 CDT15.17P  300P  0.00P  10.1P  423P  
04/23/2019 10:15 CDT15.16P  298P  0.00P  10.1P  422P  
04/23/2019 10:30 CDT15.17P  300P  0.00P  10.2P  426P  
04/23/2019 10:45 CDT15.16P  298P  0.00P  10.2P  422P  
04/23/2019 11:00 CDT15.18P  302P  0.00P  10.3P  423P  
04/23/2019 11:15 CDT15.17P  300P  0.00P  10.4P  425P  
04/23/2019 11:30 CDT15.17P  300P  0.00P  10.5P  424P  
04/23/2019 11:45 CDT15.18P  302P  0.00P  10.6P  424P  
04/23/2019 12:00 CDT15.17P  300P  0.00P  10.6P  423P  
04/23/2019 12:15 CDT15.19P  304P  0.00P  10.7P  422P  
04/23/2019 12:30 CDT15.19P  304P  0.00P  10.8P  424P  
04/23/2019 12:45 CDT15.19P  304P  0.00P  10.8P  421P  
04/23/2019 13:00 CDT15.20P  306P  0.00P  10.8P  426P  
04/23/2019 13:15 CDT15.21P  308P  0.00P  10.9P  423P  
04/23/2019 13:30 CDT15.20P  306P  0.00P  10.9P  421P  
04/23/2019 13:45 CDT15.21P  308P  0.00P  11.0P  425P  
04/23/2019 14:00 CDT15.20P  306P  0.00P  11.0P  426P  
04/23/2019 14:15 CDT15.20P  306P  0.00P  11.0P  426P  
04/23/2019 14:30 CDT15.21P  308P  0.00P  11.0P  427P  
04/23/2019 14:45 CDT15.21P  308P  0.00P  11.1P  422P  
04/23/2019 15:00 CDT15.21P  308P  0.00P  11.1P  423P  
04/23/2019 15:15 CDT15.22P  310P  0.00P  11.1P  423P  
04/23/2019 15:30 CDT15.22P  310P  0.00P  11.1P  424P  
04/23/2019 15:45 CDT15.22P  310P  0.00P  11.1P  423P  
04/23/2019 16:00 CDT15.22P  310P  0.00P  11.1P  424P  
04/23/2019 16:15 CDT15.23P  311P  0.00P  11.1P  423P  
04/23/2019 16:30 CDT15.22P  310P  0.00P  11.1P  425P  
04/23/2019 16:45 CDT15.23P  311P  0.00P  11.1P  423P  
04/23/2019 17:00 CDT15.22P  310P  0.00P  11.1P  424P  
04/23/2019 17:15 CDT15.20P  306P  0.00P  11.2P  429P  
04/23/2019 17:30 CDT15.23P  311P  0.00P  11.3P  423P  
04/23/2019 17:45 CDT15.22P  310P  0.00P  11.4P  425P  
04/23/2019 18:00 CDT15.22P  310P  0.00P  11.5P  426P  
04/23/2019 18:15 CDT15.22P  310P  0.00P  11.5P  426P  
04/23/2019 18:30 CDT15.22P  310P  0.00P  11.5P  425P  
04/23/2019 18:45 CDT15.22P  310P  0.00P  11.5P  427P  
04/23/2019 19:00 CDT15.23P  311P  0.00P  11.4P  423P  
04/23/2019 19:15 CDT15.22P  310P  0.00P  11.3P  426P  
04/23/2019 19:30 CDT15.23P  311P  0.00P  11.2P  424P  
04/23/2019 19:45 CDT15.24P  313P  0.00P  11.1P  422P  
04/23/2019 20:00 CDT15.22P  310P  0.00P  11.0P  423P  
04/23/2019 20:15 CDT15.24P  313P  0.00P  11.0P  424P  
04/23/2019 20:30 CDT15.23P  311P  0.00P  10.9P  424P  
04/23/2019 20:45 CDT15.23P  311P  0.00P  10.8P  423P  
04/23/2019 21:00 CDT15.23P  311P  0.00P  10.8P  423P  
04/23/2019 21:15 CDT15.22P  310P  0.00P  10.7P  423P  
04/23/2019 21:30 CDT15.24P  313P  0.00P  10.7P  423P  
04/23/2019 21:45 CDT15.23P  311P  0.00P  10.7P  426P  
04/23/2019 22:00 CDT15.23P  311P  0.00P  10.7P  423P  
04/23/2019 22:15 CDT15.23P  311P  0.00P  10.7P  426P  
04/23/2019 22:30 CDT15.23P  311P  0.00P  10.8P  424P  
04/23/2019 22:45 CDT15.24P  313P  0.00P  10.8P  424P  
04/23/2019 23:00 CDT15.22P  310P  0.00P  10.8P  426P  
04/23/2019 23:15 CDT15.23P  311P  0.00P  10.8P  426P  
04/23/2019 23:30 CDT15.24P  313P  0.00P  10.8P  426P  
04/23/2019 23:45 CDT15.23P  311P  0.00P  10.8P  426P  
04/24/2019 00:00 CDT15.23P  311P  0.00P  10.9P  424P  
04/24/2019 00:15 CDT15.23P  311P  0.00P  10.9P  423P  
04/24/2019 00:30 CDT15.22P  310P  0.00P  10.8P  435P  
04/24/2019 00:45 CDT15.23P  311P  0.00P  10.8P  423P  
04/24/2019 01:00 CDT15.23P  311P  0.00P  10.8P  432P  
04/24/2019 01:15 CDT15.21P  308P  0.00P  10.8P  424P  
04/24/2019 01:30 CDT15.22P  310P  0.00P  10.8P  426P  
04/24/2019 01:45 CDT15.23P  311P  0.00P  10.8P  424P  
04/24/2019 02:00 CDT15.24P  313P  0.00P  10.8P  427P  
04/24/2019 02:15 CDT15.24P  313P  0.00P  10.8P  424P  
04/24/2019 02:30 CDT15.21P  308P  0.00P  10.8P  422P  
04/24/2019 02:45 CDT15.23P  311P  0.00P  10.8P  424P  
04/24/2019 03:00 CDT15.23P  311P  0.00P  10.8P  424P  
04/24/2019 03:15 CDT15.22P  310P  0.00P  10.8P  422P  
04/24/2019 03:30 CDT15.22P  310P  0.00P  10.7P  423P  
04/24/2019 03:45 CDT15.23P  311P  0.00P  10.7P  423P  
04/24/2019 04:00 CDT15.22P  310P  0.00P  10.7P  423P  
04/24/2019 04:15 CDT15.23P  311P  0.00P  10.7P  426P  
04/24/2019 04:30 CDT15.21P  308P  0.00P  10.6P  422P  
04/24/2019 04:45 CDT15.22P  310P  0.00P  10.6P  430P  
04/24/2019 05:00 CDT15.23P  311P  0.00P  10.6P  424P  
04/24/2019 05:15 CDT15.22P  310P  0.00P  10.6P  425P  
04/24/2019 05:30 CDT15.22P  310P  0.00P  10.6P  424P  
04/24/2019 05:45 CDT15.22P  310P  0.00P  10.6P  423P  
04/24/2019 06:00 CDT15.22P  310P  0.00P  10.6P  426P  
04/24/2019 06:15 CDT15.22P  310P  0.00P  10.6P  426P  
04/24/2019 06:30 CDT15.23P  311P  0.00P  10.5P  425P  
04/24/2019 06:45 CDT15.23P  311P  0.00P  10.5P  427P  
04/24/2019 07:00 CDT15.22P  310P  0.00P  10.5P  424P  
04/24/2019 07:15 CDT15.21P  308P  0.00P  10.5P  425P  
04/24/2019 07:30 CDT15.23P  311P  0.00P  10.6P  422P  
04/24/2019 07:45 CDT15.22P  310P  0.00P  10.6P  425P  
04/24/2019 08:00 CDT15.22P  310P  0.00P  10.6P  423P  
04/24/2019 08:15 CDT15.22P  310P  0.00P  10.6P  424P  
04/24/2019 08:30 CDT15.23P  311P  0.00P  10.6P  428P  
04/24/2019 08:45 CDT15.23P  311P  0.00P  10.7P  425P  
04/24/2019 09:00 CDT15.23P  311P  0.00P  10.7P  424P  
04/24/2019 09:15 CDT15.22P  310P  0.00P  10.8P  425P  
04/24/2019 09:30 CDT15.23P  311P  0.00P  10.8P  427P  
04/24/2019 09:45 CDT15.21P  308P  0.00P  10.9P  424P  
04/24/2019 10:00 CDT15.21P  308P  0.00P  10.9P  424P  
04/24/2019 10:15 CDT15.21P  308P  0.00P  10.9P  423P  
04/24/2019 10:30 CDT15.23P  311P  0.00P  11.0P  426P  
04/24/2019 10:45 CDT15.22P  310P  0.00P  11.0P  425P  
04/24/2019 11:00 CDT15.23P  311P  0.00P  11.0P  427P  
04/24/2019 11:15 CDT15.23P  311P  0.00P  11.0P  427P  
04/24/2019 11:30 CDT15.22P  310P  0.00P  11.1P  423P  
04/24/2019 11:45 CDT15.22P  310P  0.00P  11.2P  424P  
04/24/2019 12:00 CDT15.21P  308P  0.00P  11.3P  422P  
04/24/2019 12:15 CDT15.21P  308P  0.00P  11.4P  421P  
04/24/2019 12:30 CDT15.22P  310P  0.00P  11.4P  424P  
04/24/2019 12:45 CDT15.23P  311P  0.00P  11.4P  427P  
04/24/2019 13:00 CDT15.23P  311P  0.00P  11.4P  425P  
04/24/2019 13:15 CDT15.23P  311P  0.00P  11.3P  430P  
04/24/2019 13:30 CDT15.21P  308P  0.00P  11.3P  426P  
04/24/2019 13:45 CDT15.23P  311P  0.00P  11.2P  428P  
04/24/2019 14:00 CDT15.23P  311P  0.00P  11.3P  422P  
04/24/2019 14:15 CDT15.23P  311P  0.00P  11.4P  433P  
04/24/2019 14:30 CDT15.23P  311P  0.00P  11.4P  429P  
04/24/2019 14:45 CDT15.23P  311P  0.00P  11.5P  424P  
04/24/2019 15:00 CDT15.24P  313P  0.00P  11.6P  429P  
04/24/2019 15:15 CDT15.23P  311P  0.00P  11.7P  424P  
04/24/2019 15:30 CDT15.23P  311P  0.00P  11.8P  429P  
04/24/2019 15:45 CDT15.22P  310P  0.00P  11.8P  427P  
04/24/2019 16:00 CDT15.23P  311P  0.00P  11.9P  423P  
04/24/2019 16:15 CDT15.23P  311P  0.00P  11.9P  425P  
04/24/2019 16:30 CDT15.23P  311P  0.00P  11.9P  423P  
04/24/2019 16:45 CDT15.23P  311P  0.00P  11.9P  436P  
04/24/2019 17:00 CDT15.24P  313P  0.00P  11.9P  429P  
04/24/2019 17:15 CDT15.23P  311P  0.00P  11.9P  426P  
04/24/2019 17:30 CDT15.23P  311P  0.00P  11.9P  432P  
04/24/2019 17:45 CDT15.23P  311P  0.00P  11.9P  426P  
04/24/2019 18:00 CDT15.23P  311P  0.00P  11.8P  431P  
04/24/2019 18:15 CDT15.22P  310P  0.00P  11.8P  420P  
04/24/2019 18:30 CDT15.22P  310P  0.00P  11.8P  429P  
04/24/2019 18:45 CDT15.23P  311P  0.00P  11.8P  433P  
04/24/2019 19:00 CDT15.22P  310P  0.00P  11.8P  429P  
04/24/2019 19:15 CDT15.22P  310P  0.00P  11.8P  436P  
04/24/2019 19:30 CDT15.23P  311P  0.00P  11.7P  423P  
04/24/2019 19:45 CDT15.23P  311P  0.00P  11.7P  425P  
04/24/2019 20:00 CDT15.23P  311P  0.00P  11.7P  434P  
04/24/2019 20:15 CDT15.23P  311P  0.00P  11.7P  428P  
04/24/2019 20:30 CDT15.22P  310P  0.00P  11.7P  451P  
04/24/2019 20:45 CDT15.21P  308P  0.00P  11.7P  429P  
04/24/2019 21:00 CDT15.22P  310P  0.00P  11.7P  422P  
04/24/2019 21:15 CDT15.24P  313P  0.00P  11.7P  427P  
04/24/2019 21:30 CDT15.23P  311P  0.00P  11.7P  434P  
04/24/2019 21:45 CDT15.23P  311P  0.00P  11.7P  435P  
04/24/2019 22:00 CDT15.23P  311P  0.00P  11.7P  423P  
04/24/2019 22:15 CDT15.24P  313P  0.00P  11.7P  429P  
04/24/2019 22:30 CDT15.23P  311P  0.00P  11.7P  431P  
04/24/2019 22:45 CDT15.22P  310P  0.00P  11.7P  427P  
04/24/2019 23:00 CDT15.23P  311P  0.00P  11.7P  428P  
04/24/2019 23:15 CDT15.23P  311P  0.00P  11.7P  428P  
04/24/2019 23:30 CDT15.22P  310P  0.00P  11.7P  436P  
04/24/2019 23:45 CDT15.23P  311P  0.00P  11.7P  435P  
04/25/2019 00:00 CDT15.23P  311P  0.00P  11.7P  438P  
04/25/2019 00:15 CDT15.23P  311P  0.00P  11.7P  418P  
04/25/2019 00:30 CDT15.22P  310P  0.00P  11.7P  431P  
04/25/2019 00:45 CDT15.23P  311P  0.00P  11.7P  432P  
04/25/2019 01:00 CDT15.23P  311P  0.00P  11.7P  430P  
04/25/2019 01:15 CDT15.23P  311P  0.00P  11.7P  432P  
04/25/2019 01:30 CDT15.23P  311P  0.00P  11.7P  424P  
04/25/2019 01:45 CDT15.23P  311P  0.00P  11.8P  430P  
04/25/2019 02:00 CDT15.23P  311P  0.00P  11.8P  439P  
04/25/2019 02:15 CDT15.24P  313P  0.00P  11.8P  431P  
04/25/2019 02:30 CDT15.24P  313P  0.00P  11.7P  419P  
04/25/2019 02:45 CDT15.23P  311P  0.00P  11.7P  428P  
04/25/2019 03:00 CDT15.22P  310P  0.00P  11.7P  423P  
04/25/2019 03:15 CDT15.23P  311P  0.00P  11.7P  428P  
04/25/2019 03:30 CDT15.23P  311P  0.00P  11.7P  434P  
04/25/2019 03:45 CDT15.22P  310P  0.00P  11.7P  430P  
04/25/2019 04:00 CDT15.23P  311P  0.00P  11.7P  426P  
04/25/2019 04:15 CDT15.22P  310P  0.00P  11.7P  432P  
04/25/2019 04:30 CDT15.24P  313P  0.00P  11.7P  424P  
04/25/2019 04:45 CDT15.23P  311P  0.00P  11.7P  424P  
04/25/2019 05:00 CDT15.25P  315P  0.00P  11.7P  434P  
04/25/2019 05:15 CDT15.22P  310P  0.00P  11.7P  426P  
04/25/2019 05:30 CDT15.24P  313P  0.00P  11.7P  420P  
04/25/2019 05:45 CDT15.23P  311P  0.00P  11.7P  443P  
04/25/2019 06:00 CDT15.23P  311P  0.00P  11.7P  455P  
04/25/2019 06:15 CDT15.24P  313P  0.00P  11.7P  426P  
04/25/2019 06:30 CDT15.23P  311P  0.00P  11.7P  431P  
04/25/2019 06:45 CDT15.24P  313P  0.00P  11.7P  425P  
04/25/2019 07:00 CDT15.24P  313P  0.00P  11.6P  429P  
04/25/2019 07:15 CDT15.24P  313P  0.00P  11.6P  430P  
04/25/2019 07:30 CDT15.24P  313P  0.00P  11.6P  429P  
04/25/2019 07:45 CDT15.23P  311P  0.00P  11.6P  426P  
04/25/2019 08:00 CDT15.23P  311P  0.00P  11.6P  428P  
04/25/2019 08:15 CDT15.24P  313P  0.00P  11.6P  428P  
04/25/2019 08:30 CDT15.24P  313P  0.00P  11.6P  428P  
04/25/2019 08:45 CDT15.24P  313P  0.00P  11.6P  433P  
04/25/2019 09:00 CDT15.24P  313P  0.00P  11.6P  431P  
04/25/2019 09:15 CDT15.25P  315P  0.00P  11.7P  429P  
04/25/2019 09:30 CDT15.24P  313P  0.00P  11.7P  423P  
04/25/2019 09:45 CDT15.25P  315P  0.00P  11.7P  438P  
04/25/2019 10:00 CDT15.24P  313P  0.00P  11.7P  420P  
04/25/2019 10:15 CDT15.24P  313P  0.00P  11.7P  425P  
04/25/2019 10:30 CDT15.24P  313P  0.00P  11.7P  436P  
04/25/2019 10:45 CDT15.25P  315P  0.00P  11.8P  427P  
04/25/2019 11:00 CDT15.25P  315P  0.00P  11.8P  428P  
04/25/2019 11:15 CDT15.26P  317P  0.00P  11.8P  432P  
04/25/2019 11:30 CDT15.24P  313P  0.00P  11.9P  423P  
04/25/2019 11:45 CDT15.23P  311P  0.00P  11.9P  428P  
04/25/2019 12:00 CDT15.24P  313P  0.00P  12.0P  421P  
04/25/2019 12:15 CDT15.25P  315P  0.00P  12.0P  421P  
04/25/2019 12:30 CDT15.25P  315P  0.00P  12.0P  432P  
04/25/2019 12:45 CDT15.25P  315P  0.00P  12.0P  431P  
04/25/2019 13:00 CDT15.26P  317P  0.00P  12.1P  425P  
04/25/2019 13:15 CDT15.25P  315P  0.00P  12.2P  427P  
04/25/2019 13:30 CDT15.25P  315P  0.00P  12.4P  432P  
04/25/2019 13:45 CDT15.26P  317P  0.00P  12.5P  428P  
04/25/2019 14:00 CDT15.25P  315P  0.00P  12.6P  428P  
04/25/2019 14:15 CDT15.24P  313P  0.00P  12.6P  425P  
04/25/2019 14:30 CDT15.25P  315P  0.00P  12.7P  429P  
04/25/2019 14:45 CDT15.25P  315P  0.00P  12.7P  431P  
04/25/2019 15:00 CDT15.25P  315P  0.00P  12.8P  434P  
04/25/2019 15:15 CDT15.26P  317P  0.00P  12.8P  426P  
04/25/2019 15:30 CDT15.25P  315P  0.00P  12.9P  430P  
04/25/2019 15:45 CDT15.26P  317P  0.00P  12.9P  430P  
04/25/2019 16:00 CDT15.26P  317P  0.00P  12.9P  427P  
04/25/2019 16:15 CDT15.26P  317P  0.00P  13.0P  432P  
04/25/2019 16:30 CDT15.26P  317P  0.00P  13.0P  427P  
04/25/2019 16:45 CDT15.25P  315P  0.00P  13.0P  429P  
04/25/2019 17:00 CDT15.26P  317P  0.00P  13.0P  430P  
04/25/2019 17:15 CDT15.26P  317P  0.00P  13.0P  428P  
04/25/2019 17:30 CDT15.26P  317P  0.00P  13.0P  429P  
04/25/2019 17:45 CDT15.26P  317P  0.00P  13.0P  423P  
04/25/2019 18:00 CDT15.25P  315P  0.00P  12.9P  421P  
04/25/2019 18:15 CDT15.26P  317P  0.00P  12.9P  432P  
04/25/2019 18:30 CDT15.26P  317P  0.00P  12.9P  431P  
04/25/2019 18:45 CDT15.26P  317P  0.00P  12.9P  432P  
04/25/2019 19:00 CDT15.25P  315P  0.00P  12.9P  427P  
04/25/2019 19:15 CDT15.26P  317P  0.00P  12.8P  423P  
04/25/2019 19:30 CDT15.28P  321P  0.00P  12.8P  430P  
04/25/2019 19:45 CDT15.31P  327P  0.00P  12.8P  419P  
04/25/2019 20:00 CDT15.31P  327P  0.00P  12.8P  427P  
04/25/2019 20:15 CDT15.29P  323P  0.00P  12.7P  443P  
04/25/2019 20:30 CDT15.29P  323P  0.00P  12.7P  432P  
04/25/2019 20:45 CDT15.25P  315P  0.00P  12.7P  434P  
04/25/2019 21:00 CDT15.25P  315P  0.00P  12.6P  422P  
04/25/2019 21:15 CDT15.23P  311P  0.00P  12.6P  437P  
04/25/2019 21:30 CDT15.24P  313P  0.00P  12.6P  424P  
04/25/2019 21:45 CDT15.24P  313P  0.00P  12.6P  433P  
04/25/2019 22:00 CDT15.25P  315P  0.00P  12.5P  429P  
04/25/2019 22:15 CDT15.25P  315P  0.00P  12.5P  427P  
04/25/2019 22:30 CDT15.25P  315P  0.00P  12.5P  425P  
04/25/2019 22:45 CDT15.25P  315P  0.00P  12.4P  426P  
04/25/2019 23:00 CDT15.25P  315P  0.00P  12.4P  429P  
04/25/2019 23:15 CDT15.25P  315P  0.00P  12.4P  428P  
04/25/2019 23:30 CDT15.24P  313P  0.00P  12.3P  427P  
04/25/2019 23:45 CDT15.25P  315P  0.00P  12.3P  421P  
04/26/2019 00:00 CDT15.24P  313P  0.00P  12.2P  428P  
04/26/2019 00:15 CDT15.24P  313P  0.00P  12.2P  422P  
04/26/2019 00:30 CDT15.25P  315P  0.00P  12.2P  426P  
04/26/2019 00:45 CDT15.26P  317P  0.00P  12.2P  433P  
04/26/2019 01:00 CDT15.24P  313P  0.00P  12.1P  423P  
04/26/2019 01:15 CDT15.24P  313P  0.00P  12.1P  426P  
04/26/2019 01:30 CDT15.24P  313P  0.00P  12.1P  427P  
04/26/2019 01:45 CDT15.24P  313P  0.00P  12.1P  429P  
04/26/2019 02:00 CDT15.24P  313P  0.00P  12.0P  422P  

Explanation
  P  Provisional data subject to revision.